Time;durP1;ratioP1;P1;durP2;ratioP2;P2;SDS_P1;SDS_P2;PMS_P1;PMS_P2;Temp;Humidity;BMP_temperature;BMP_pressure;BME280_temperature;BME280_humidity;BME280_pressure;Samples;Min_cycle;Max_cycle;Signal;HPM_P1;HPM_P2
2022/11/09 00:01:19;;;;;;;9.82;2.30;;;;;;;17.16;60.81;100444.53;4994297;28;20045;-43
2022/11/09 00:03:44;;;;;;;10.55;2.40;;;;;;;17.29;60.39;100440.78;4994206;28;20030;-45
2022/11/09 00:06:09;;;;;;;10.70;2.30;;;;;;;17.29;60.44;100443.41;4993929;28;20030;-44
2022/11/09 00:08:36;;;;;;;9.27;2.53;;;;;;;17.30;60.05;100446.91;4993786;28;20033;-46
2022/11/09 00:11:08;;;;;;;10.02;2.40;;;;;;;17.36;59.87;100445.00;4993718;28;20029;-44
2022/11/09 00:13:41;;;;;;;11.23;2.58;;;;;;;16.84;61.40;100442.53;4994212;28;20026;-44
2022/11/09 00:16:08;;;;;;;13.77;2.67;;;;;;;17.24;60.20;100447.91;4993839;28;20026;-47
2022/11/09 00:18:35;;;;;;;10.65;2.20;;;;;;;17.01;60.90;100440.47;4993691;28;20084;-44
2022/11/09 00:21:12;;;;;;;15.40;2.22;;;;;;;16.98;61.21;100445.78;4993464;28;20457;-44
2022/11/09 00:23:38;;;;;;;12.45;2.35;;;;;;;16.85;61.53;100440.78;4993947;28;20037;-47
2022/11/09 00:26:06;;;;;;;10.02;2.35;;;;;;;16.92;61.41;100445.03;4993821;28;20045;-44
2022/11/09 00:28:32;;;;;;;10.63;2.67;;;;;;;16.75;61.87;100441.84;4993499;28;20101;-47
2022/11/09 00:30:59;;;;;;;10.18;2.17;;;;;;;16.73;61.59;100439.25;4993416;28;20058;-48
2022/11/09 00:33:25;;;;;;;18.27;2.40;;;;;;;16.55;62.07;100435.16;4993443;28;20069;-43
2022/11/09 00:35:50;;;;;;;13.48;2.13;;;;;;;16.79;61.47;100438.25;4993276;28;20037;-46
2022/11/09 00:38:15;;;;;;;11.90;2.20;;;;;;;16.68;61.70;100441.09;4993177;28;20053;-43
2022/11/09 00:40:40;;;;;;;7.28;2.05;;;;;;;16.68;61.48;100448.13;4993261;28;20105;-43
2022/11/09 00:43:06;;;;;;;6.95;2.03;;;;;;;16.79;60.97;100460.19;4993541;28;20026;-43
2022/11/09 00:45:31;;;;;;;11.88;2.40;;;;;;;16.69;61.23;100452.50;4992071;28;20046;-47
2022/11/09 00:47:56;;;;;;;13.68;2.33;;;;;;;16.53;61.56;100442.19;4993886;28;20026;-43
2022/11/09 00:50:22;;;;;;;15.85;3.40;;;;;;;16.63;61.03;100446.47;4993366;28;20026;-43
2022/11/09 00:52:47;;;;;;;13.35;3.50;;;;;;;16.71;60.95;100448.94;4992992;28;20022;-47
2022/11/09 00:55:12;;;;;;;13.48;3.38;;;;;;;16.60;61.44;100435.09;4993520;28;20022;-44
2022/11/09 00:57:38;;;;;;;14.85;2.60;;;;;;;16.48;61.33;100436.16;4993500;28;20418;-49
2022/11/09 01:00:04;;;;;;;10.20;1.90;;;;;;;16.62;60.81;100435.94;4993467;28;20109;-52
2022/11/09 01:02:29;;;;;;;9.15;2.10;;;;;;;16.69;60.53;100439.34;4993685;28;20553;-43
2022/11/09 01:04:54;;;;;;;9.18;2.08;;;;;;;16.65;60.67;100435.03;4995784;28;20029;-44
2022/11/09 01:07:20;;;;;;;11.95;2.60;;;;;;;16.49;60.90;100443.16;4996219;28;20026;-47
2022/11/09 01:09:45;;;;;;;12.18;2.00;;;;;;;16.49;60.83;100442.28;4994517;28;20097;-44
2022/11/09 01:12:10;;;;;;;11.40;2.30;;;;;;;16.26;61.39;100452.34;4992397;28;20080;-47
2022/11/09 01:14:36;;;;;;;10.40;2.28;;;;;;;16.42;61.05;100451.19;4992633;28;20109;-45
2022/11/09 01:17:01;;;;;;;9.60;2.00;;;;;;;16.63;60.16;100441.19;4992641;28;20042;-44
2022/11/09 01:19:26;;;;;;;11.68;2.35;;;;;;;16.21;61.52;100444.53;4992537;28;20435;-45
2022/11/09 01:21:52;;;;;;;8.23;1.98;;;;;;;16.60;60.24;100445.63;4992441;28;20022;-43
2022/11/09 01:24:17;;;;;;;8.80;2.00;;;;;;;16.33;61.01;100444.34;4992533;28;20030;-44
2022/11/09 01:26:42;;;;;;;15.02;2.25;;;;;;;16.24;61.56;100455.88;4992616;28;20030;-45
2022/11/09 01:29:08;;;;;;;14.45;2.40;;;;;;;16.59;60.47;100454.38;4993676;28;20022;-45
2022/11/09 01:31:33;;;;;;;11.25;1.90;;;;;;;16.30;61.36;100459.28;4993539;28;20029;-48
2022/11/09 01:33:58;;;;;;;11.18;2.00;;;;;;;16.32;61.53;100462.75;4993810;28;20029;-42
2022/11/09 01:36:24;;;;;;;12.40;2.28;;;;;;;16.20;61.72;100461.19;4993913;28;20033;-46
2022/11/09 01:38:50;;;;;;;11.00;1.90;;;;;;;16.46;61.02;100468.66;4993968;28;20097;-43
2022/11/09 01:41:21;;;;;;;8.90;2.20;;;;;;;16.40;61.33;100466.16;4993878;28;20024;-44
2022/11/09 01:44:09;;;;;;;6.35;1.92;;;;;;;16.27;62.14;100459.34;4993780;28;20461;-44
2022/11/09 01:46:42;;;;;;;13.77;2.22;;;;;;;16.44;61.68;100454.66;4993589;28;20398;-46
2022/11/09 01:49:15;;;;;;;8.70;2.13;;;;;;;16.22;62.37;100467.31;4993286;28;20328;-49
2022/11/09 01:51:51;;;;;;;7.13;2.10;;;;;;;16.19;62.62;100462.97;4991782;28;20589;-46
2022/11/09 01:54:22;;;;;;;7.90;2.00;;;;;;;16.51;61.86;100456.28;4992139;28;20406;-46
2022/11/09 01:56:50;;;;;;;10.07;2.30;;;;;;;16.59;61.42;100463.19;4991538;28;20034;-45
2022/11/09 01:59:20;;;;;;;11.23;2.22;;;;;;;16.65;61.52;100464.00;4991760;28;20610;-46
2022/11/09 02:01:46;;;;;;;13.18;2.20;;;;;;;16.15;63.18;100457.78;4992004;28;20511;-44
2022/11/09 02:04:28;;;;;;;14.93;2.30;;;;;;;16.62;61.53;100459.63;4992062;28;20100;-43
2022/11/09 02:06:56;;;;;;;12.85;2.67;;;;;;;16.63;61.46;100454.34;4991872;28;20041;-43
2022/11/09 02:09:30;;;;;;;12.10;2.30;;;;;;;16.70;61.38;100467.41;4991478;28;20447;-49
2022/11/09 02:11:56;;;;;;;11.82;2.38;;;;;;;16.66;61.58;100465.69;4991306;28;20026;-46
2022/11/09 02:14:24;;;;;;;11.73;2.28;;;;;;;16.62;61.78;100454.38;4991638;28;20037;-44
2022/11/09 02:16:49;;;;;;;12.65;2.33;;;;;;;16.64;61.75;100452.59;4991917;28;20034;-46
2022/11/09 02:19:14;;;;;;;9.25;2.20;;;;;;;16.65;61.75;100466.63;4991212;28;20030;-47
2022/11/09 02:21:40;;;;;;;9.70;2.15;;;;;;;16.67;61.71;100449.88;4991228;28;20085;-47
2022/11/09 02:24:05;;;;;;;14.43;2.60;;;;;;;16.73;61.53;100464.69;4991663;28;20041;-44
2022/11/09 02:26:33;;;;;;;11.85;2.70;;;;;;;16.45;61.88;100456.41;4991650;28;20034;-43
2022/11/09 02:29:02;;;;;;;11.63;2.28;;;;;;;16.65;61.81;100458.72;4991398;28;20034;-44
2022/11/09 02:31:33;;;;;;;11.50;2.20;;;;;;;16.76;61.35;100462.03;4991200;28;20328;-44
2022/11/09 02:34:05;;;;;;;12.32;2.58;;;;;;;16.42;62.23;100465.22;4992551;28;20028;-49
2022/11/09 02:36:30;;;;;;;13.65;2.58;;;;;;;16.47;62.14;100473.00;4994290;28;20494;-50
2022/11/09 02:38:56;;;;;;;10.90;2.38;;;;;;;16.52;62.14;100469.44;4992220;28;20027;-43
2022/11/09 02:41:23;;;;;;;10.13;2.53;;;;;;;16.32;62.84;100463.63;4990864;28;20062;-43
2022/11/09 02:43:51;;;;;;;11.40;2.28;;;;;;;16.22;62.93;100464.69;4990788;28;20026;-44
2022/11/09 02:46:36;;;;;;;13.55;2.17;;;;;;;16.50;62.64;100465.09;4991249;28;20434;-45
2022/11/09 02:49:02;;;;;;;11.00;2.40;;;;;;;16.34;63.04;100471.50;4991150;28;20030;-48
2022/11/09 02:51:28;;;;;;;10.43;1.90;;;;;;;16.50;62.02;100458.06;4990702;28;20434;-46
2022/11/09 02:53:54;;;;;;;9.38;2.38;;;;;;;16.28;62.76;100469.84;4990932;28;20030;-52
2022/11/09 02:56:19;;;;;;;9.18;2.10;;;;;;;16.30;62.23;100469.81;4990721;28;20040;-44
2022/11/09 02:58:44;;;;;;;9.20;2.40;;;;;;;16.17;63.41;100467.38;4990689;28;20030;-42
2022/11/09 03:01:10;;;;;;;9.13;2.15;;;;;;;16.40;62.18;100471.41;4973178;28;20471;-45
2022/11/09 03:03:35;;;;;;;11.13;2.30;;;;;;;16.19;63.27;100470.84;4991088;28;20019;-45
2022/11/09 03:06:00;;;;;;;10.52;2.30;;;;;;;16.08;63.54;100472.78;4991449;28;20410;-44
2022/11/09 03:08:26;;;;;;;8.93;2.30;;;;;;;16.22;63.10;100464.69;4990130;28;20026;-43
2022/11/09 03:10:51;;;;;;;10.77;2.30;;;;;;;16.02;63.50;100451.84;4990390;28;20118;-43
2022/11/09 03:13:16;;;;;;;9.07;2.20;;;;;;;16.08;63.25;100462.28;4990890;28;20106;-49
2022/11/09 03:15:42;;;;;;;10.02;2.20;;;;;;;15.80;63.96;100469.69;4991264;28;20029;-43
2022/11/09 03:18:07;;;;;;;8.90;2.03;;;;;;;15.82;64.03;100475.78;5014045;23;20030;-42
2022/11/09 03:20:32;;;;;;;11.35;2.03;;;;;;;15.80;63.95;100482.81;4989843;28;20069;-43
2022/11/09 03:22:59;;;;;;;8.77;2.03;;;;;;;15.89;64.07;100491.47;4991257;28;20089;-41
2022/11/09 03:25:25;;;;;;;9.13;1.90;;;;;;;15.75;64.33;100489.91;4991311;28;20038;-40
2022/11/09 03:27:59;;;;;;;8.32;2.00;;;;;;;15.88;63.80;100490.59;4991317;28;20097;-40
2022/11/09 03:30:25;;;;;;;8.43;2.00;;;;;;;15.85;63.80;100495.94;4971570;28;20452;-42
2022/11/09 03:32:50;;;;;;;9.18;1.90;;;;;;;15.89;63.63;100494.09;4972010;28;20113;-41
2022/11/09 03:35:15;;;;;;;8.00;2.20;;;;;;;15.85;63.67;100493.31;4972194;28;20035;-43
2022/11/09 03:37:40;;;;;;;10.80;2.45;;;;;;;15.89;63.64;100502.00;4972703;28;20023;-40
2022/11/09 03:40:06;;;;;;;9.60;2.10;;;;;;;16.02;62.99;100506.19;4955713;28;20042;-41
2022/11/09 03:42:31;;;;;;;6.47;1.90;;;;;;;16.07;62.85;100515.75;4972547;28;20065;-46
2022/11/09 03:44:57;;;;;;;11.73;2.13;;;;;;;15.89;63.70;100515.13;4972066;28;20022;-39
2022/11/09 03:47:22;;;;;;;8.40;1.90;;;;;;;16.09;62.46;100524.50;4972174;28;20023;-41
2022/11/09 03:49:47;;;;;;;8.73;2.10;;;;;;;15.77;63.98;100522.31;4972627;28;20705;-40
2022/11/09 03:52:13;;;;;;;10.07;1.80;;;;;;;15.99;63.44;100525.50;4972071;28;20104;-39
2022/11/09 03:54:38;;;;;;;6.93;2.10;;;;;;;16.14;62.80;100535.81;4973429;28;20080;-39
2022/11/09 03:57:03;;;;;;;8.38;1.80;;;;;;;16.09;62.75;100529.75;4973095;28;20073;-39
2022/11/09 03:59:29;;;;;;;8.23;1.95;;;;;;;16.16;62.55;100534.00;4972620;28;20113;-40
2022/11/09 04:01:54;;;;;;;7.53;1.90;;;;;;;16.26;62.33;100541.78;4972892;28;20030;-46
2022/11/09 04:04:19;;;;;;;8.05;1.73;;;;;;;16.22;62.17;100549.69;4971564;28;20084;-41
2022/11/09 04:06:44;;;;;;;6.97;1.70;;;;;;;16.04;62.73;100543.88;4971572;28;20073;-42
2022/11/09 04:09:10;;;;;;;11.05;2.00;;;;;;;16.08;62.76;100546.41;4971833;28;20026;-42
2022/11/09 04:11:35;;;;;;;11.82;2.30;;;;;;;15.90;64.75;100554.56;4973274;28;20022;-40
2022/11/09 04:14:00;;;;;;;9.32;1.88;;;;;;;16.03;65.63;100553.50;4972614;28;20097;-40
2022/11/09 04:16:26;;;;;;;8.32;1.80;;;;;;;15.63;67.10;100555.78;4972454;28;20431;-38
2022/11/09 04:18:51;;;;;;;7.50;1.83;;;;;;;15.53;67.88;100556.78;4971980;28;20049;-40
2022/11/09 04:21:16;;;;;;;9.50;1.70;;;;;;;15.76;67.11;100549.47;4975374;28;20124;-43
2022/11/09 04:23:42;;;;;;;6.82;1.58;;;;;;;15.75;67.39;100549.50;4974714;28;20106;-39
2022/11/09 04:26:07;;;;;;;6.40;1.60;;;;;;;15.84;67.22;100552.00;4975040;28;20081;-40
2022/11/09 04:28:32;;;;;;;7.03;1.52;;;;;;;15.66;68.02;100557.50;4976266;28;20101;-40
2022/11/09 04:31:01;;;;;;;7.35;1.60;;;;;;;15.41;68.21;100554.25;4976213;28;20391;-39
2022/11/09 04:33:27;;;;;;;7.15;1.70;;;;;;;15.60;67.66;100555.81;4976494;28;20044;-40
2022/11/09 04:35:53;;;;;;;8.38;1.70;;;;;;;15.24;68.40;100557.09;4976749;28;20027;-42
2022/11/09 04:38:18;;;;;;;6.68;1.67;;;;;;;15.57;67.51;100555.84;4973612;28;20037;-40
2022/11/09 04:40:43;;;;;;;6.78;1.73;;;;;;;15.54;67.63;100557.66;4973582;28;20050;-40
2022/11/09 04:43:11;;;;;;;6.40;1.50;;;;;;;15.60;67.09;100557.59;4973935;28;20492;-41
2022/11/09 04:45:37;;;;;;;11.70;1.70;;;;;;;15.66;66.74;100563.63;4973844;28;20050;-42
2022/11/09 04:48:05;;;;;;;7.80;1.65;;;;;;;15.41;67.13;100565.66;4973662;28;20026;-42
2022/11/09 04:50:31;;;;;;;8.07;2.10;;;;;;;14.98;68.68;100573.09;4973858;28;20050;-40
2022/11/09 04:53:08;;;;;;;5.90;1.50;;;;;;;14.98;68.38;100565.22;4973664;28;20428;-44
2022/11/09 04:55:33;;;;;;;5.93;1.52;;;;;;;15.49;66.55;100556.81;4974594;28;20102;-42
2022/11/09 04:57:58;;;;;;;7.75;1.52;;;;;;;15.27;67.26;100559.66;4957790;28;20126;-42
2022/11/09 05:00:25;;;;;;;7.57;1.73;;;;;;;15.11;67.94;100555.47;4975022;28;20027;-41
2022/11/09 05:02:51;;;;;;;9.88;1.90;;;;;;;15.27;67.85;100553.53;4975775;28;20113;-41
2022/11/09 05:05:17;;;;;;;6.45;1.60;;;;;;;14.87;69.26;100553.94;4974169;28;20113;-39
2022/11/09 05:07:42;;;;;;;6.28;1.60;;;;;;;15.24;68.56;100546.59;4973634;28;20026;-41
2022/11/09 05:10:07;;;;;;;9.63;1.60;;;;;;;15.40;67.99;100548.13;4973775;28;20030;-40
2022/11/09 05:12:33;;;;;;;8.77;2.22;;;;;;;15.12;68.99;100556.34;4973202;28;20030;-42
2022/11/09 05:14:58;;;;;;;12.50;1.60;;;;;;;15.44;67.85;100552.47;4973642;28;20399;-41
2022/11/09 05:17:23;;;;;;;8.15;1.80;;;;;;;15.33;67.56;100550.84;4973382;28;20023;-42
2022/11/09 05:19:49;;;;;;;8.23;2.03;;;;;;;15.26;68.31;100543.91;4973117;28;20122;-40
2022/11/09 05:24:58;;;;;;;10.73;2.58;;;;;;;15.31;67.54;100557.84;4973428;28;20033;-40
2022/11/09 05:27:23;;;;;;;8.80;2.28;;;;;;;15.30;67.83;100554.41;4973158;28;20018;-40
2022/11/09 05:29:48;;;;;;;8.60;2.00;;;;;;;15.31;67.17;100558.72;4973451;28;20046;-42
2022/11/09 05:32:14;;;;;;;8.52;2.25;;;;;;;15.24;67.50;100561.47;4972595;28;20030;-44
2022/11/09 05:34:39;;;;;;;9.15;2.00;;;;;;;15.12;67.45;100562.47;4973049;28;20162;-42
2022/11/09 05:37:04;;;;;;;5.80;1.77;;;;;;;15.30;66.81;100553.53;4972892;28;20032;-42
2022/11/09 05:39:29;;;;;;;7.43;1.80;;;;;;;15.08;67.89;100560.72;4973172;28;20053;-42
2022/11/09 05:41:55;;;;;;;10.85;2.00;;;;;;;15.05;67.33;100554.66;4972845;28;20109;-40
2022/11/09 05:44:20;;;;;;;11.95;1.88;;;;;;;15.26;66.42;100565.78;4973086;28;20031;-41
2022/11/09 05:46:45;;;;;;;9.77;1.85;;;;;;;15.16;66.67;100565.91;4973142;28;20031;-42
2022/11/09 05:49:10;;;;;;;8.27;1.70;;;;;;;15.23;66.56;100570.22;4955710;28;20030;-41
2022/11/09 05:51:36;;;;;;;9.68;1.80;;;;;;;15.09;66.94;100567.72;4972613;28;20502;-41
2022/11/09 05:54:02;;;;;;;11.02;1.95;;;;;;;14.92;67.74;100567.03;4973391;28;20089;-42
2022/11/09 05:56:27;;;;;;;9.13;1.73;;;;;;;14.94;67.03;100570.53;4975362;28;20030;-40
2022/11/09 05:58:52;;;;;;;10.73;1.95;;;;;;;14.75;68.55;100571.56;4974612;28;20411;-41
2022/11/09 06:01:18;;;;;;;9.85;1.95;;;;;;;14.77;67.72;100568.03;4972975;28;20113;-39
2022/11/09 06:03:43;;;;;;;9.35;1.90;;;;;;;14.90;67.21;100569.66;4974042;28;20085;-41
2022/11/09 06:06:11;;;;;;;12.77;1.90;;;;;;;15.08;66.82;100570.38;4974680;28;20110;-42
2022/11/09 06:08:36;;;;;;;15.20;2.08;;;;;;;14.93;67.37;100561.78;4974432;28;20022;-41
2022/11/09 06:11:05;;;;;;;7.82;1.77;;;;;;;15.05;67.13;100578.28;4973153;28;20041;-41
2022/11/09 06:13:31;;;;;;;9.02;1.80;;;;;;;15.17;66.37;100571.16;4973948;28;20394;-44
2022/11/09 06:16:00;;;;;;;11.43;2.10;;;;;;;14.87;67.77;100572.31;4973788;28;20371;-41
2022/11/09 06:18:27;;;;;;;9.90;2.08;;;;;;;15.10;66.85;100579.97;4973710;28;20135;-40
2022/11/09 06:20:54;;;;;;;8.05;1.83;;;;;;;15.15;66.73;100572.03;4974175;28;20027;-42
2022/11/09 06:23:24;;;;;;;8.00;1.98;;;;;;;14.89;67.74;100581.03;4974951;28;20523;-43
2022/11/09 06:26:00;;;;;;;9.35;2.03;;;;;;;15.11;67.09;100584.34;4974374;28;20077;-41
2022/11/09 06:28:26;;;;;;;10.20;2.20;;;;;;;15.14;66.84;100575.56;4974018;28;20030;-40
2022/11/09 06:30:55;;;;;;;9.27;2.10;;;;;;;15.16;67.16;100582.53;4974185;28;20088;-40
2022/11/09 06:33:20;;;;;;;6.90;1.80;;;;;;;15.22;66.94;100584.25;4973696;28;20114;-42
2022/11/09 06:35:46;;;;;;;8.50;1.85;;;;;;;15.26;66.61;100578.94;4974315;28;20142;-42
2022/11/09 06:38:12;;;;;;;8.93;1.92;;;;;;;15.32;66.38;100588.50;4974738;28;20023;-41
2022/11/09 06:40:38;;;;;;;10.43;2.13;;;;;;;15.35;66.10;100576.22;4972802;28;20050;-42
2022/11/09 06:43:03;;;;;;;9.60;2.13;;;;;;;15.33;65.98;100582.38;4973249;28;20507;-39
2022/11/09 06:45:29;;;;;;;10.05;1.80;;;;;;;15.34;66.31;100594.63;4974261;28;20031;-42
2022/11/09 06:48:00;;;;;;;7.70;1.90;;;;;;;15.29;66.55;100584.16;4974655;28;20050;-41
2022/11/09 06:50:27;;;;;;;8.98;1.73;;;;;;;15.25;67.00;100590.31;4974816;28;20093;-40
2022/11/09 06:53:02;;;;;;;9.70;1.83;;;;;;;15.17;67.15;100592.16;4973875;28;20030;-41
2022/11/09 06:55:28;;;;;;;8.60;1.90;;;;;;;15.13;67.60;100593.06;4973960;28;20045;-43
2022/11/09 06:57:54;;;;;;;8.18;2.00;;;;;;;15.39;66.34;100585.78;4973390;28;20019;-42
2022/11/09 07:00:20;;;;;;;10.65;2.05;;;;;;;15.23;67.23;100594.72;4971940;28;20085;-41
2022/11/09 07:02:45;;;;;;;9.05;1.80;;;;;;;15.27;67.07;100592.94;4972161;28;20492;-41
2022/11/09 07:05:10;;;;;;;12.20;2.30;;;;;;;15.18;67.46;100595.66;4972436;28;20480;-40
2022/11/09 07:07:36;;;;;;;6.93;2.08;;;;;;;15.19;67.23;100593.00;4973862;28;20050;-41
2022/11/09 07:10:01;;;;;;;13.80;2.50;;;;;;;15.39;66.67;100609.44;4972575;28;20038;-44
2022/11/09 07:12:27;;;;;;;10.57;2.33;;;;;;;15.26;66.96;100606.94;4972456;28;20439;-42
2022/11/09 07:14:52;;;;;;;10.30;2.20;;;;;;;15.46;66.62;100602.38;4972611;28;20030;-44
2022/11/09 07:17:17;;;;;;;11.23;2.40;;;;;;;15.44;66.72;100602.38;4971410;28;20368;-43
2022/11/09 07:19:43;;;;;;;9.48;2.25;;;;;;;15.64;65.92;100596.94;4972003;28;20034;-44
2022/11/09 07:22:08;;;;;;;8.63;2.03;;;;;;;15.55;66.27;100598.81;4971860;28;20403;-43
2022/11/09 07:24:33;;;;;;;9.25;2.35;;;;;;;15.16;67.25;100598.31;4972725;28;20034;-43
2022/11/09 07:26:58;;;;;;;9.70;1.95;;;;;;;15.37;66.99;100603.31;4972622;28;20125;-41
2022/11/09 07:29:24;;;;;;;12.63;2.40;;;;;;;15.44;66.29;100607.63;4973270;28;20427;-40
2022/11/09 07:31:49;;;;;;;10.07;2.20;;;;;;;15.55;66.18;100604.06;4972702;28;20030;-40
2022/11/09 07:34:14;;;;;;;8.88;2.05;;;;;;;15.33;66.55;100613.88;4973366;28;20050;-39
2022/11/09 07:36:40;;;;;;;8.10;2.13;;;;;;;15.51;66.19;100608.44;4973683;28;20033;-42
2022/11/09 07:39:05;;;;;;;9.93;2.13;;;;;;;15.19;67.36;100614.00;4971364;28;20178;-41
2022/11/09 07:41:30;;;;;;;9.48;2.05;;;;;;;15.38;66.49;100618.19;4972581;28;20034;-39
2022/11/09 07:43:56;;;;;;;8.68;2.00;;;;;;;15.25;67.20;100619.19;4973213;28;20431;-42
2022/11/09 07:46:22;;;;;;;15.05;2.15;;;;;;;15.46;66.48;100626.00;4973229;28;20041;-41
2022/11/09 07:48:47;;;;;;;8.57;1.90;;;;;;;15.35;66.83;100618.25;4956779;28;20031;-39
2022/11/09 07:51:12;;;;;;;10.07;2.20;;;;;;;15.45;66.49;100624.25;4953086;29;20395;-41
2022/11/09 07:53:38;;;;;;;8.20;1.90;;;;;;;15.55;66.45;100633.84;4952406;29;20031;-43
2022/11/09 07:56:04;;;;;;;10.90;2.17;;;;;;;15.69;65.81;100631.91;4955166;28;20041;-40
2022/11/09 07:58:30;;;;;;;8.23;1.90;;;;;;;15.58;65.95;100636.41;4955838;29;20024;-40
2022/11/09 08:00:56;;;;;;;10.70;2.00;;;;;;;15.81;64.85;100623.00;4955356;29;20577;-40
2022/11/09 08:03:23;;;;;;;10.15;2.10;;;;;;;15.81;64.77;100626.50;4955820;29;20035;-46
2022/11/09 08:05:49;;;;;;;8.30;2.00;;;;;;;16.27;63.78;100633.81;4946259;29;20274;-44
2022/11/09 08:08:15;;;;;;;9.00;1.92;;;;;;;16.13;63.94;100641.03;4935805;29;20020;-42
2022/11/09 08:10:41;;;;;;;9.90;2.10;;;;;;;16.05;64.07;100643.75;4936153;29;20035;-42
2022/11/09 08:13:11;;;;;;;11.88;2.10;;;;;;;16.34;63.58;100637.25;4935935;29;20421;-41
2022/11/09 08:15:37;;;;;;;11.95;2.13;;;;;;;16.44;63.13;100641.47;4935926;29;20033;-42
2022/11/09 08:18:18;;;;;;;9.93;2.05;;;;;;;15.95;63.86;100636.00;4936005;29;20031;-43
2022/11/09 08:20:43;;;;;;;13.85;2.38;;;;;;;16.38;63.17;100644.19;4935926;29;20420;-41
2022/11/09 08:23:13;;;;;;;10.95;2.05;;;;;;;16.29;63.51;100645.19;4936524;29;20028;-42
2022/11/09 08:25:40;;;;;;;11.70;2.22;;;;;;;16.02;63.92;100650.81;4935738;29;20036;-43
2022/11/09 08:28:06;;;;;;;11.90;2.10;;;;;;;15.87;64.91;100658.88;4935691;29;20107;-44
2022/11/09 08:30:32;;;;;;;11.00;2.20;;;;;;;16.02;64.62;100659.56;4935630;29;20370;-40
2022/11/09 08:32:59;;;;;;;10.05;2.50;;;;;;;16.41;63.43;100662.56;4936623;29;20130;-38
2022/11/09 08:35:25;;;;;;;10.45;2.05;;;;;;;15.99;64.49;100658.72;4936105;29;20028;-41
2022/11/09 08:37:52;;;;;;;10.40;2.00;;;;;;;16.17;63.66;100669.88;4936209;29;20102;-41
2022/11/09 08:40:21;;;;;;;12.43;2.08;;;;;;;16.16;64.16;100664.66;4935989;29;20028;-40
2022/11/09 08:42:46;;;;;;;13.38;2.50;;;;;;;15.93;64.90;100670.19;4936485;29;20023;-40
2022/11/09 08:45:12;;;;;;;10.30;2.00;;;;;;;16.31;63.43;100658.31;4936823;29;20087;-42
2022/11/09 08:47:38;;;;;;;9.38;2.47;;;;;;;16.39;63.24;100664.34;4937410;29;20051;-40
2022/11/09 08:50:05;;;;;;;9.65;2.25;;;;;;;16.23;63.36;100661.91;4937134;29;20050;-41
2022/11/09 08:52:31;;;;;;;11.48;2.30;;;;;;;16.57;62.68;100669.38;4919157;29;20524;-41
2022/11/09 08:54:56;;;;;;;9.20;2.15;;;;;;;16.36;63.65;100670.50;4937425;29;20027;-42
2022/11/09 08:57:23;;;;;;;9.52;2.40;;;;;;;16.18;63.53;100663.75;4937001;29;20094;-41
2022/11/09 08:59:48;;;;;;;14.15;2.40;;;;;;;16.17;63.91;100662.00;4920704;29;20079;-40
2022/11/09 09:02:14;;;;;;;10.65;2.53;;;;;;;16.33;62.94;100662.69;4937992;29;20457;-41
2022/11/09 09:04:39;;;;;;;12.38;2.80;;;;;;;16.43;62.80;100658.16;4936999;29;20043;-42
2022/11/09 09:07:05;;;;;;;10.18;2.40;;;;;;;16.63;62.17;100671.94;4935781;29;20206;-41
2022/11/09 09:09:31;;;;;;;11.15;2.85;;;;;;;16.38;62.40;100660.84;4937455;29;20364;-41
2022/11/09 09:11:56;;;;;;;12.85;2.97;;;;;;;16.39;62.48;100674.88;4935830;29;20083;-45
2022/11/09 09:14:21;;;;;;;15.30;2.80;;;;;;;16.54;62.38;100674.66;4935738;29;20150;-44
2022/11/09 09:16:47;;;;;;;12.45;2.70;;;;;;;16.21;63.39;100676.00;4936190;29;20031;-40
2022/11/09 09:19:12;;;;;;;12.40;2.33;;;;;;;16.32;63.14;100673.22;4936808;29;20034;-43
2022/11/09 09:21:38;;;;;;;12.40;2.45;;;;;;;15.78;64.65;100676.50;4935651;29;20448;-42
2022/11/09 09:24:03;;;;;;;11.93;2.50;;;;;;;16.34;63.29;100656.53;4935138;29;20032;-42
2022/11/09 09:26:28;;;;;;;9.70;2.50;;;;;;;16.64;62.54;100671.06;4935379;29;20020;-42
2022/11/09 09:28:55;;;;;;;9.50;2.78;;;;;;;16.73;62.20;100668.28;4935633;29;20167;-41
2022/11/09 09:31:20;;;;;;;11.57;2.78;;;;;;;16.32;62.41;100676.72;4935525;29;20035;-42
2022/11/09 09:33:46;;;;;;;11.70;2.50;;;;;;;16.73;61.43;100683.19;4936143;29;20060;-40
2022/11/09 09:36:17;;;;;;;14.70;2.40;;;;;;;16.67;62.00;100678.88;4936572;29;20027;-40
2022/11/09 09:38:43;;;;;;;9.80;2.58;;;;;;;16.33;62.04;100662.69;4936516;29;20555;-43
2022/11/09 09:41:20;;;;;;;13.00;2.72;;;;;;;16.40;62.50;100682.75;4937300;29;20050;-39
2022/11/09 09:43:48;;;;;;;13.13;2.60;;;;;;;16.50;61.77;100687.00;4937112;29;20034;-38
2022/11/09 09:46:30;;;;;;;8.95;2.42;;;;;;;16.44;62.13;100678.31;4920394;29;20024;-40
2022/11/09 09:49:10;;;;;;;10.27;2.53;;;;;;;16.59;61.33;100686.88;4936672;29;20024;-40
2022/11/09 09:52:05;;;;;;;19.10;2.90;;;;;;;16.36;61.99;100690.69;4934893;29;20032;-43
2022/11/09 09:54:38;;;;;;;11.50;2.25;;;;;;;16.41;61.70;100687.09;4936436;29;20027;-40
2022/11/09 09:57:18;;;;;;;11.15;2.50;;;;;;;16.46;61.01;100706.38;4936798;29;20028;-40
2022/11/09 09:59:48;;;;;;;12.07;2.30;;;;;;;16.42;61.59;100701.13;4935442;29;20016;-39
2022/11/09 10:02:24;;;;;;;10.27;2.50;;;;;;;16.81;60.53;100715.56;4934752;29;20039;-38
2022/11/09 10:04:54;;;;;;;10.80;2.45;;;;;;;16.75;60.47;100713.88;4935759;29;20493;-40
2022/11/09 10:07:27;;;;;;;9.88;2.30;;;;;;;16.85;60.23;100725.13;4935356;29;20515;-39
2022/11/09 10:10:06;;;;;;;9.75;2.20;;;;;;;16.84;60.15;100724.25;4935528;29;20078;-40
2022/11/09 10:12:49;;;;;;;11.20;2.60;;;;;;;16.77;59.77;100724.41;4935919;29;20369;-40
2022/11/09 10:15:53;;;;;;;11.10;2.60;;;;;;;16.27;62.98;100733.78;4934392;29;20055;-41
2022/11/09 10:18:35;;;;;;;6.68;1.88;;;;;;;16.27;63.15;100731.16;4934313;29;20488;-42
2022/11/09 10:21:17;;;;;;;9.80;2.08;;;;;;;15.95;64.91;100731.53;4933801;29;20476;-39
2022/11/09 10:23:58;;;;;;;10.73;2.45;;;;;;;15.99;64.93;100729.72;4934393;29;20380;-39
2022/11/09 10:26:40;;;;;;;9.27;2.35;;;;;;;16.22;64.70;100720.66;4934184;29;20616;-41
2022/11/09 10:29:20;;;;;;;8.65;2.33;;;;;;;16.04;64.76;100726.16;4934874;29;20023;-42
2022/11/09 10:31:48;;;;;;;7.97;2.10;;;;;;;15.91;63.78;100721.06;4934461;29;20106;-42
2022/11/09 10:34:29;;;;;;;9.23;2.40;;;;;;;16.27;63.04;100717.13;4917946;29;20020;-40
2022/11/09 10:37:05;;;;;;;10.40;2.28;;;;;;;16.59;63.03;100725.47;4934882;29;20028;-39
2022/11/09 10:39:56;;;;;;;6.80;1.90;;;;;;;16.15;62.47;100728.69;4935924;29;20392;-39
2022/11/09 10:42:21;;;;;;;11.60;2.50;;;;;;;16.46;62.52;100721.28;4934849;29;20050;-42
2022/11/09 10:44:47;;;;;;;12.25;2.22;;;;;;;16.92;61.57;100721.53;4935003;29;20472;-42
2022/11/09 10:47:17;;;;;;;11.07;2.40;;;;;;;17.08;60.78;100722.19;4934916;29;20031;-41
2022/11/09 10:49:42;;;;;;;8.95;2.05;;;;;;;17.18;61.03;100724.63;4934608;29;20036;-42
2022/11/09 10:52:38;;;;;;;9.27;2.30;;;;;;;16.69;62.01;100719.22;4934149;29;20039;-40
2022/11/09 10:55:24;;;;;;;11.13;2.25;;;;;;;16.61;61.45;100708.81;4928371;29;20071;-40
2022/11/09 10:57:57;;;;;;;8.50;2.33;;;;;;;16.58;60.99;100703.56;4934865;29;20031;-44
2022/11/09 11:00:22;;;;;;;10.48;2.03;;;;;;;16.88;60.04;100699.66;4934209;29;20035;-41
2022/11/09 11:02:49;;;;;;;8.07;1.90;;;;;;;16.28;61.10;100716.25;4934288;29;20034;-40
2022/11/09 11:05:17;;;;;;;8.55;2.05;;;;;;;16.71;59.93;100701.63;4934284;29;20031;-39
2022/11/09 11:07:43;;;;;;;11.00;2.08;;;;;;;17.16;58.87;100718.50;4934994;29;20039;-41
2022/11/09 11:10:14;;;;;;;9.38;1.90;;;;;;;16.86;59.55;100711.94;4933993;29;20052;-39
2022/11/09 11:13:05;;;;;;;7.28;1.98;;;;;;;16.75;59.59;100710.38;4933708;29;20447;-40
2022/11/09 11:15:37;;;;;;;6.35;1.80;;;;;;;16.19;60.10;100712.84;4927190;29;20047;-40
2022/11/09 11:18:24;;;;;;;5.03;1.52;;;;;;;16.36;59.79;100719.63;4933978;29;20457;-40
2022/11/09 11:21:18;;;;;;;7.68;1.60;;;;;;;16.79;58.30;100717.31;4934281;29;20024;-44
2022/11/09 11:23:43;;;;;;;6.35;1.60;;;;;;;16.84;58.47;100720.75;4931221;29;20040;-41
2022/11/09 11:26:11;;;;;;;6.10;1.40;;;;;;;16.78;57.89;100729.63;4935140;29;20032;-39
2022/11/09 11:28:42;;;;;;;4.38;1.40;;;;;;;16.66;58.34;100737.69;4934902;29;20056;-41